Santutxu, Spain
Current Conditions -  °F | °C
As of 9:30 PM on Tuesday 25 Nov 2014 (Local Time) from LEBB Reporting Station
Moderate Rain Moderate Rain  
Wind Chill: 57°   Ceiling: 2000
Heat Index: 57°   Visibility: 1.5mi
Dew Point: 57°   Wind: 2mph
Humidity: 100%   Direction: NA
Pressure: 30.03"   Gusts: NA
Location:  43.25°N, 2.92°W
Report Text: LEBB 252030Z VRB02KT 2500 RA SCT010 SCT015 BKN020 14/14 Q1017 TEMPO 6000 NSW
Loading
Personal Weather Stations






























Interactive Weather Map New forecast layout! Learn more

10-Day Weather Forecast

Advertisements
Track Severe Weather on mobile